Aeolos — V7PS2 — position and weather

sailwx.info

Track history (hours):
 
Tides and Currents Weather Stations Pressure Air Temp Water Temp Dewpoint Dewpoint Depression Visibility Wind Speed Wind Dir Waves Ship Positions

Aeolos

Last reported at 2016-Mar-17 14:32 UTC. Time now 2016-Apr-30 18:50 UTC.
Position N 28°18' W 016°03'.
Warning: this ship's position is 44 days out of date.

Length 172 m; draft 7.8 m.

Type: Cargo ship. MMSI: 538003275.

Date/timePositionNaut miles runAvg speedWind from/ knotsBaromVisibWave heightAir tempDewpointWater temp
2016-Mar-17 14:32N 28°18' W 016°03'1414.0
2016-Mar-17 13:33N 28°29' W 015°53'1414.0
2016-Mar-17 12:33N 28°39' W 015°43'1414.1
2016-Mar-17 11:33N 28°49' W 015°31'1414.1
2016-Mar-17 10:33N 28°59' W 015°20'1414.0
2016-Mar-17 09:33N 29°08' W 015°08'1413.9
2016-Mar-17 08:34N 29°18' W 014°56'1414.2
2016-Mar-17 07:33N 29°27' W 014°44'1414.4
2016-Mar-17 06:33N 29°37' W 014°32'1414.5
2016-Mar-17 05:33N 29°46' W 014°19'1614.4
2016-Mar-17 04:25N 29°56' W 014°04'1314.4
2016-Mar-17 03:31N 30°04' W 013°52'  
2016-Mar-14 22:28N 36°27' W 002°07'1614.3
2016-Mar-14 21:21N 36°31' W 001°47'1113.8
2016-Mar-14 20:32N 36°33' W 001°34'1313.1
2016-Mar-14 19:33N 36°36' W 001°18'1313.4
2016-Mar-14 18:33N 36°38' W 001°01'1414.0
2016-Mar-14 17:33N 36°40' W 000°44'  
2016-Mar-12 09:06N 36°21' E 013°49'713.4
2016-Mar-12 08:33N 36°18' E 013°57'1413.7
2016-Mar-12 07:33N 36°11' E 014°12'1414.1
2016-Mar-12 06:33N 36°03' E 014°26'8 8.3
2016-Mar-12 05:33N 35°57' E 014°33'8 7.7
2016-Mar-12 04:33N 36°00' E 014°24'0 0.1
2016-Mar-12 03:33N 36°00' E 014°24'0 0.0
2016-Mar-12 02:33N 36°00' E 014°24'0 0.0
2016-Mar-12 01:33N 36°00' E 014°24'0 0.0
2016-Mar-12 00:32N 36°00' E 014°24'0 0.1
2016-Mar-11 23:32N 36°00' E 014°24'0 0.1
2016-Mar-11 22:32N 36°00' E 014°24'0 0.0
2016-Mar-11 21:32N 36°00' E 014°25'0 0.1
2016-Mar-11 20:32N 36°00' E 014°25'0 0.0
2016-Mar-11 19:33N 36°00' E 014°25'6 5.6
2016-Mar-11 18:33N 35°58' E 014°31'6 6.1
2016-Mar-11 17:33N 35°59' E 014°38'  
2016-Mar-09 04:23N 40°57' E 028°55'146 5.4
2016-Mar-08 01:19N 43°16' E 029°55'1513.3
2016-Mar-08 00:14N 43°30' E 030°00'4913.3
2016-Mar-07 20:31N 44°17' E 030°20'1213.0
2016-Mar-07 19:33N 44°29' E 030°25'1312.8
2016-Mar-07 18:33N 44°42' E 030°30'1312.7
2016-Mar-07 17:33N 44°54' E 030°34'  
Track history (hours):
 
Tides and Currents Weather Stations Pressure Air Temp Water Temp Dewpoint Dewpoint Depression Visibility Wind Speed Wind Dir Waves Ship Positions

Aeolos

Last reported at 2016-Mar-17 14:32 UTC. Time now 2016-Apr-30 18:50 UTC.
Position N 28°18' W 016°03'.
Warning: this ship's position is 44 days out of date.

Length 172 m; draft 7.8 m.

Type: Cargo ship. MMSI: 538003275.

Date/timePositionNaut miles runAvg speedWind from/ knotsBaromVisibWave heightAir tempDewpointWater temp
2016-Mar-17 14:32N 28°18' W 016°03'1414.0
2016-Mar-17 13:33N 28°29' W 015°53'1414.0
2016-Mar-17 12:33N 28°39' W 015°43'1414.1
2016-Mar-17 11:33N 28°49' W 015°31'1414.1
2016-Mar-17 10:33N 28°59' W 015°20'1414.0
2016-Mar-17 09:33N 29°08' W 015°08'1413.9
2016-Mar-17 08:34N 29°18' W 014°56'1414.2
2016-Mar-17 07:33N 29°27' W 014°44'1414.4
2016-Mar-17 06:33N 29°37' W 014°32'1414.5
2016-Mar-17 05:33N 29°46' W 014°19'1614.4
2016-Mar-17 04:25N 29°56' W 014°04'1314.4
2016-Mar-17 03:31N 30°04' W 013°52'  
2016-Mar-14 22:28N 36°27' W 002°07'1614.3
2016-Mar-14 21:21N 36°31' W 001°47'1113.8
2016-Mar-14 20:32N 36°33' W 001°34'1313.1
2016-Mar-14 19:33N 36°36' W 001°18'1313.4
2016-Mar-14 18:33N 36°38' W 001°01'1414.0
2016-Mar-14 17:33N 36°40' W 000°44'  
2016-Mar-12 09:06N 36°21' E 013°49'713.4
2016-Mar-12 08:33N 36°18' E 013°57'1413.7
2016-Mar-12 07:33N 36°11' E 014°12'1414.1
2016-Mar-12 06:33N 36°03' E 014°26'8 8.3
2016-Mar-12 05:33N 35°57' E 014°33'8 7.7
2016-Mar-12 04:33N 36°00' E 014°24'0 0.1
2016-Mar-12 03:33N 36°00' E 014°24'0 0.0
2016-Mar-12 02:33N 36°00' E 014°24'0 0.0
2016-Mar-12 01:33N 36°00' E 014°24'0 0.0
2016-Mar-12 00:32N 36°00' E 014°24'0 0.1
2016-Mar-11 23:32N 36°00' E 014°24'0 0.1
2016-Mar-11 22:32N 36°00' E 014°24'0 0.0
2016-Mar-11 21:32N 36°00' E 014°25'0 0.1
2016-Mar-11 20:32N 36°00' E 014°25'0 0.0
2016-Mar-11 19:33N 36°00' E 014°25'6 5.6
2016-Mar-11 18:33N 35°58' E 014°31'6 6.1
2016-Mar-11 17:33N 35°59' E 014°38'  
2016-Mar-09 04:23N 40°57' E 028°55'146 5.4
2016-Mar-08 01:19N 43°16' E 029°55'1513.3
2016-Mar-08 00:14N 43°30' E 030°00'4913.3
2016-Mar-07 20:31N 44°17' E 030°20'1213.0
2016-Mar-07 19:33N 44°29' E 030°25'1312.8
2016-Mar-07 18:33N 44°42' E 030°30'1312.7
2016-Mar-07 17:33N 44°54' E 030°34'  

Dump ship's entire track history